createdAt,value
2019-01-20T00:01:01.458Z,11.40
2019-01-20T00:05:54.314Z,7.80
2019-01-20T00:10:47.159Z,6.97
2019-01-20T00:15:40.913Z,7.73
2019-01-20T00:20:33.727Z,6.77
2019-01-20T00:25:26.565Z,6.03
2019-01-20T00:30:19.510Z,7.30
2019-01-20T00:35:12.377Z,8.63
2019-01-20T00:40:08.039Z,6.63
2019-01-20T00:45:02.702Z,8.10
2019-01-20T00:49:55.735Z,6.90
2019-01-20T00:54:48.580Z,7.60
2019-01-20T00:59:41.407Z,7.00
2019-01-20T01:04:34.253Z,5.97
2019-01-20T01:09:27.096Z,8.13
2019-01-20T01:14:19.946Z,8.37
2019-01-20T01:19:12.769Z,9.07
2019-01-20T01:24:05.608Z,8.57
2019-01-20T01:28:58.425Z,6.60
2019-01-20T01:33:51.226Z,6.63
2019-01-20T01:38:44.073Z,5.77
2019-01-20T01:43:36.904Z,6.27
2019-01-20T01:48:29.816Z,8.13
2019-01-20T01:53:22.640Z,7.00
2019-01-20T01:58:15.485Z,7.63
2019-01-20T02:03:08.313Z,7.87
2019-01-20T02:08:01.164Z,6.47
2019-01-20T02:12:53.968Z,6.63
2019-01-20T02:17:47.227Z,6.73
2019-01-20T02:22:40.251Z,6.47
2019-01-20T02:27:33.086Z,5.97
2019-01-20T02:32:25.930Z,5.10
2019-01-20T02:37:18.746Z,6.80
2019-01-20T02:42:11.610Z,6.83
2019-01-20T02:47:04.474Z,5.57
2019-01-20T02:51:57.325Z,5.03
2019-01-20T02:56:50.142Z,5.13
2019-01-20T03:01:43.102Z,10.10
2019-01-20T03:06:35.928Z,5.67
2019-01-20T03:11:28.843Z,6.30
2019-01-20T03:16:21.660Z,6.07
2019-01-20T03:21:14.508Z,5.40
2019-01-20T03:26:07.324Z,5.00
2019-01-20T03:31:00.197Z,6.10
2019-01-20T03:35:53.160Z,6.60
2019-01-20T03:40:45.967Z,6.63
2019-01-20T03:45:38.828Z,7.53
2019-01-20T03:50:31.629Z,6.50
2019-01-20T03:55:24.458Z,6.17
2019-01-20T04:00:20.274Z,8.27
2019-01-20T04:05:13.467Z,7.03
2019-01-20T04:10:10.235Z,5.93
2019-01-20T04:15:03.630Z,7.30
2019-01-20T04:19:57.325Z,5.70
2019-01-20T04:24:50.196Z,6.67
2019-01-20T04:29:43.015Z,5.33
2019-01-20T04:34:35.910Z,7.37
2019-01-20T04:39:28.835Z,7.03
2019-01-20T04:44:21.712Z,6.40
2019-01-20T04:49:14.551Z,6.50
2019-01-20T04:54:07.897Z,7.17
2019-01-20T04:59:00.744Z,6.80
2019-01-20T05:03:53.593Z,7.83
2019-01-20T05:08:46.430Z,7.80
2019-01-20T05:13:39.300Z,10.10
2019-01-20T05:18:32.130Z,5.93
2019-01-20T05:23:24.957Z,7.53
2019-01-20T05:28:17.778Z,6.07
2019-01-20T05:33:10.604Z,7.00
2019-01-20T05:38:03.737Z,7.80
2019-01-20T05:42:58.286Z,7.73
2019-01-20T05:47:51.122Z,6.73
2019-01-20T05:52:43.953Z,7.00
2019-01-20T05:57:36.788Z,7.67
2019-01-20T06:02:29.637Z,7.27
2019-01-20T06:07:22.439Z,6.47
2019-01-20T06:12:15.272Z,6.83
2019-01-20T06:17:08.087Z,7.03
2019-01-20T06:22:00.915Z,6.77
2019-01-20T06:26:53.799Z,8.93
2019-01-20T06:31:46.636Z,6.13
2019-01-20T06:36:39.436Z,6.43
2019-01-20T06:41:32.289Z,6.40
2019-01-20T06:46:25.870Z,7.07
2019-01-20T06:51:18.741Z,8.93
2019-01-20T06:56:11.576Z,7.10
2019-01-20T07:01:04.508Z,6.37
2019-01-20T07:05:57.363Z,7.40
2019-01-20T07:10:50.172Z,8.83
2019-01-20T07:15:43.027Z,6.50
2019-01-20T07:20:35.870Z,7.60
2019-01-20T07:25:28.739Z,7.93
2019-01-20T07:30:23.069Z,7.80
2019-01-20T07:35:15.926Z,7.60
2019-01-20T07:40:11.004Z,4.90
2019-01-20T07:45:06.947Z,8.87
2019-01-20T07:49:59.796Z,9.33
2019-01-20T07:54:52.655Z,7.73
2019-01-20T07:59:45.486Z,8.90
2019-01-20T08:04:38.287Z,7.27
2019-01-20T08:09:31.143Z,8.00
2019-01-20T08:14:23.987Z,8.40
2019-01-20T08:19:16.834Z,10.00
2019-01-20T08:24:09.681Z,8.47
2019-01-20T08:29:02.512Z,7.30
2019-01-20T08:33:55.332Z,8.27
2019-01-20T08:38:48.163Z,8.83
2019-01-20T08:43:41.101Z,7.73
2019-01-20T08:48:34.162Z,10.10
2019-01-20T08:53:28.392Z,7.80
2019-01-20T08:58:21.537Z,10.33
2019-01-20T09:03:14.370Z,9.10
2019-01-20T09:08:07.209Z,10.13
2019-01-20T09:13:06.297Z,9.43
2019-01-20T09:17:59.150Z,7.47
2019-01-20T09:22:51.962Z,8.83
2019-01-20T09:27:44.862Z,9.33
2019-01-20T09:32:37.793Z,9.33
2019-01-20T09:37:30.716Z,10.73
2019-01-20T09:42:23.574Z,10.90
2019-01-20T09:47:16.378Z,9.40
2019-01-20T09:52:09.247Z,11.17
2019-01-20T09:57:02.051Z,9.73
2019-01-20T10:01:54.901Z,9.53
2019-01-20T10:06:47.723Z,10.83
2019-01-20T10:11:40.589Z,10.23
2019-01-20T10:16:33.386Z,12.00
2019-01-20T10:21:26.267Z,11.20
2019-01-20T10:26:19.172Z,10.40
2019-01-20T10:31:12.030Z,11.43
2019-01-20T10:36:05.814Z,13.27
2019-01-20T10:40:58.622Z,13.03
2019-01-20T10:45:51.473Z,14.70
2019-01-20T10:50:44.314Z,11.27
2019-01-20T10:55:37.142Z,9.00
2019-01-20T11:00:34.550Z,12.00
2019-01-20T11:05:30.724Z,12.03
2019-01-20T11:10:22.465Z,13.63
2019-01-20T11:15:15.505Z,14.27
2019-01-20T11:20:10.865Z,13.77
2019-01-20T11:25:05.241Z,13.27
2019-01-20T11:29:59.898Z,11.30
2019-01-20T11:34:52.779Z,12.20
2019-01-20T11:39:45.598Z,15.80
2019-01-20T11:44:38.455Z,13.43
2019-01-20T11:49:31.284Z,13.83
2019-01-20T11:54:24.188Z,14.60
2019-01-20T11:59:17.119Z,14.77
2019-01-20T12:04:09.956Z,16.47
2019-01-20T12:09:06.040Z,15.37
2019-01-20T12:13:58.912Z,15.10
2019-01-20T12:18:51.773Z,13.87
2019-01-20T12:23:44.675Z,14.97
2019-01-20T12:28:37.491Z,14.83
2019-01-20T12:33:30.312Z,16.80
2019-01-20T12:38:23.159Z,13.97
2019-01-20T12:43:16.018Z,15.47
2019-01-20T12:48:08.880Z,15.37
2019-01-20T12:53:01.694Z,15.10
2019-01-20T12:57:54.558Z,15.50
2019-01-20T13:02:47.537Z,15.30
2019-01-20T13:07:40.379Z,16.13
2019-01-20T13:12:33.235Z,12.57
2019-01-20T13:17:26.060Z,19.13
2019-01-20T13:22:18.909Z,15.67
2019-01-20T13:27:11.732Z,13.53
2019-01-20T13:32:04.705Z,14.57
2019-01-20T13:36:57.535Z,15.97
2019-01-20T13:41:50.404Z,15.80
2019-01-20T13:46:43.246Z,15.60
2019-01-20T13:51:36.086Z,14.07
2019-01-20T13:56:28.922Z,14.83
2019-01-20T14:01:21.764Z,15.30
2019-01-20T14:06:14.659Z,13.97
2019-01-20T14:11:07.482Z,13.33
2019-01-20T14:16:00.372Z,11.80
2019-01-20T14:20:53.206Z,13.20
2019-01-20T14:25:46.096Z,10.90
2019-01-20T14:30:39.040Z,14.20
2019-01-20T14:35:31.860Z,10.07
2019-01-20T14:40:24.717Z,12.47
2019-01-20T14:45:18.109Z,11.70
2019-01-20T14:50:16.044Z,11.97
2019-01-20T14:55:09.317Z,9.87
2019-01-20T15:00:02.635Z,9.87
2019-01-20T15:04:55.514Z,16.47
2019-01-20T15:09:48.398Z,16.23
2019-01-20T15:14:41.228Z,12.60
2019-01-20T15:19:34.035Z,9.57
2019-01-20T15:24:31.197Z,9.40
2019-01-20T15:29:21.680Z,10.10
2019-01-20T15:34:14.485Z,9.67
2019-01-20T15:39:08.359Z,12.80
2019-01-20T15:44:01.198Z,10.57
2019-01-20T15:48:54.035Z,11.87
2019-01-20T15:53:46.965Z,10.80
2019-01-20T15:58:39.827Z,12.60
2019-01-20T16:03:32.659Z,10.83
2019-01-20T16:08:25.474Z,11.23
2019-01-20T16:13:18.354Z,10.90
2019-01-20T16:18:14.383Z,11.13
2019-01-20T16:23:07.721Z,11.63
2019-01-20T16:28:00.532Z,10.90
2019-01-20T16:32:53.383Z,11.77
2019-01-20T16:37:47.195Z,13.07
2019-01-20T16:42:40.266Z,11.73
2019-01-20T16:47:34.825Z,13.33
2019-01-20T16:52:27.737Z,15.43
2019-01-20T16:57:20.589Z,12.87
2019-01-20T17:02:13.444Z,17.30
2019-01-20T17:07:06.432Z,14.87
2019-01-20T17:11:59.272Z,17.87
2019-01-20T17:16:52.091Z,19.13
2019-01-20T17:21:44.947Z,17.97
2019-01-20T17:26:37.809Z,19.37
2019-01-20T17:31:30.629Z,15.77
2019-01-20T17:36:23.479Z,17.70
2019-01-20T17:41:16.335Z,16.97
2019-01-20T17:46:09.202Z,17.37
2019-01-20T17:51:02.074Z,16.13
2019-01-20T17:55:54.951Z,16.00
2019-01-20T18:00:54.267Z,19.73
2019-01-20T18:05:47.613Z,14.77
2019-01-20T18:10:40.579Z,17.43
2019-01-20T18:15:33.474Z,20.73
2019-01-20T18:20:27.815Z,21.17
2019-01-20T18:25:21.130Z,20.17
2019-01-20T18:30:19.824Z,16.93
2019-01-20T18:35:12.773Z,20.53
2019-01-20T18:40:12.869Z,20.10
2019-01-20T18:45:07.440Z,21.67
2019-01-20T18:50:00.315Z,19.93
2019-01-20T18:54:53.192Z,21.30
2019-01-20T18:59:46.045Z,22.57
2019-01-20T19:04:38.878Z,19.03
2019-01-20T19:09:31.738Z,21.67
2019-01-20T19:14:24.573Z,21.63
2019-01-20T19:19:17.425Z,23.40
2019-01-20T19:24:10.303Z,25.60
2019-01-20T19:29:03.398Z,21.07
2019-01-20T19:33:56.431Z,22.60
2019-01-20T19:38:49.283Z,19.30
2019-01-20T19:43:42.122Z,20.63
2019-01-20T19:48:34.940Z,20.83
2019-01-20T19:53:27.761Z,20.60
2019-01-20T19:58:20.711Z,22.43
2019-01-20T20:03:13.616Z,24.57
2019-01-20T20:08:06.489Z,25.17
2019-01-20T20:12:59.320Z,23.80
2019-01-20T20:17:52.492Z,23.80
2019-01-20T20:22:45.402Z,22.97
2019-01-20T20:27:38.219Z,30.07
2019-01-20T20:32:31.089Z,33.80
2019-01-20T20:37:23.923Z,31.10
2019-01-20T20:42:16.872Z,34.10
2019-01-20T20:47:09.741Z,29.97
2019-01-20T20:52:02.609Z,28.43
2019-01-20T20:56:55.442Z,30.23
2019-01-20T21:01:48.258Z,30.77
2019-01-20T21:06:41.169Z,25.40
2019-01-20T21:11:33.998Z,28.60
2019-01-20T21:16:26.832Z,26.80
2019-01-20T21:21:19.663Z,29.90
2019-01-20T21:26:19.828Z,30.47
2019-01-20T21:31:12.688Z,28.07
2019-01-20T21:36:06.559Z,29.70
2019-01-20T21:40:59.431Z,31.07
2019-01-20T21:45:52.297Z,30.03
2019-01-20T21:50:45.157Z,30.03
2019-01-20T21:55:38.012Z,29.17
2019-01-20T22:00:30.851Z,27.73
2019-01-20T22:05:23.758Z,27.70
2019-01-20T22:10:18.954Z,24.77
2019-01-20T22:15:12.338Z,21.83
2019-01-20T22:20:07.326Z,22.33
2019-01-20T22:25:00.213Z,21.83
2019-01-20T22:29:53.113Z,27.53
2019-01-20T22:34:45.947Z,23.53
2019-01-20T22:39:38.908Z,24.77
2019-01-20T22:44:31.765Z,25.93
2019-01-20T22:49:24.707Z,30.07
2019-01-20T22:54:17.545Z,24.60
2019-01-20T22:59:10.400Z,25.90
2019-01-20T23:04:03.817Z,25.50
2019-01-20T23:08:56.666Z,28.13
2019-01-20T23:13:49.502Z,26.97
2019-01-20T23:18:42.415Z,26.57
2019-01-20T23:23:36.216Z,26.23
2019-01-20T23:28:29.094Z,23.07
2019-01-20T23:33:21.920Z,23.77
2019-01-20T23:38:14.790Z,27.20
2019-01-20T23:43:07.665Z,27.27
2019-01-20T23:48:03.720Z,25.27
2019-01-20T23:52:56.559Z,26.40
2019-01-20T23:57:49.465Z,24.83
